sensor_id;sensor_type;location;lat;lon;timestamp;P1;durP1;ratioP1;P2;durP2;ratioP2
10535;SDS011;5316;49.538;8.352;2023-05-20T09:51:43;4.25;;;3.95;;
10535;SDS011;5316;49.538;8.352;2023-05-20T12:06:57;4.50;;;4.10;;
10535;SDS011;5316;49.538;8.352;2023-05-20T12:09:24;4.18;;;3.97;;
10535;SDS011;5316;49.538;8.352;2023-05-20T12:11:51;4.63;;;3.90;;
10535;SDS011;5316;49.538;8.352;2023-05-20T12:14:22;3.88;;;3.60;;
10535;SDS011;5316;49.538;8.352;2023-05-20T12:16:49;3.92;;;3.72;;
10535;SDS011;5316;49.538;8.352;2023-05-20T12:19:18;3.90;;;3.60;;
10535;SDS011;5316;49.538;8.352;2023-05-20T12:21:45;4.18;;;3.80;;
10535;SDS011;5316;49.538;8.352;2023-05-20T12:24:14;4.05;;;3.85;;
10535;SDS011;5316;49.538;8.352;2023-05-20T12:26:42;3.78;;;3.50;;
10535;SDS011;5316;49.538;8.352;2023-05-20T12:29:09;4.43;;;4.13;;
10535;SDS011;5316;49.538;8.352;2023-05-20T12:31:37;3.78;;;3.45;;
10535;SDS011;5316;49.538;8.352;2023-05-20T12:34:04;4.28;;;3.90;;
10535;SDS011;5316;49.538;8.352;2023-05-20T12:36:31;5.05;;;3.92;;
10535;SDS011;5316;49.538;8.352;2023-05-20T12:38:59;3.97;;;3.78;;
10535;SDS011;5316;49.538;8.352;2023-05-20T12:41:28;5.22;;;3.88;;
10535;SDS011;5316;49.538;8.352;2023-05-20T12:43:55;4.60;;;4.20;;
10535;SDS011;5316;49.538;8.352;2023-05-20T12:46:23;3.80;;;3.60;;
10535;SDS011;5316;49.538;8.352;2023-05-20T12:48:50;4.43;;;4.13;;
10535;SDS011;5316;49.538;8.352;2023-05-20T12:51:18;4.20;;;3.90;;
10535;SDS011;5316;49.538;8.352;2023-05-20T12:53:46;5.03;;;4.10;;
10535;SDS011;5316;49.538;8.352;2023-05-20T12:56:13;3.47;;;3.28;;
10535;SDS011;5316;49.538;8.352;2023-05-20T12:58:44;4.10;;;3.80;;
10535;SDS011;5316;49.538;8.352;2023-05-20T13:01:11;4.13;;;3.83;;
10535;SDS011;5316;49.538;8.352;2023-05-20T13:03:38;3.88;;;3.58;;
10535;SDS011;5316;49.538;8.352;2023-05-20T13:06:05;4.55;;;3.63;;
10535;SDS011;5316;49.538;8.352;2023-05-20T13:08:32;5.80;;;4.22;;
10535;SDS011;5316;49.538;8.352;2023-05-20T13:10:59;5.22;;;3.67;;
10535;SDS011;5316;49.538;8.352;2023-05-20T13:13:27;6.80;;;4.13;;
10535;SDS011;5316;49.538;8.352;2023-05-20T13:15:56;3.90;;;3.70;;
10535;SDS011;5316;49.538;8.352;2023-05-20T13:18:24;4.00;;;3.80;;
10535;SDS011;5316;49.538;8.352;2023-05-20T13:20:51;4.28;;;3.88;;
10535;SDS011;5316;49.538;8.352;2023-05-20T13:23:18;4.72;;;4.32;;
10535;SDS011;5316;49.538;8.352;2023-05-20T13:25:46;4.55;;;4.03;;
10535;SDS011;5316;49.538;8.352;2023-05-20T13:28:13;4.13;;;3.83;;
10535;SDS011;5316;49.538;8.352;2023-05-20T13:30:43;4.18;;;3.88;;
10535;SDS011;5316;49.538;8.352;2023-05-20T13:33:11;4.15;;;3.90;;
10535;SDS011;5316;49.538;8.352;2023-05-20T13:35:39;3.50;;;3.30;;
10535;SDS011;5316;49.538;8.352;2023-05-20T13:38:06;4.70;;;4.40;;
10535;SDS011;5316;49.538;8.352;2023-05-20T13:40:34;4.25;;;3.90;;
10535;SDS011;5316;49.538;8.352;2023-05-20T13:43:00;4.72;;;4.07;;
10535;SDS011;5316;49.538;8.352;2023-05-20T13:45:27;4.60;;;4.30;;
10535;SDS011;5316;49.538;8.352;2023-05-20T13:47:54;4.82;;;4.40;;
10535;SDS011;5316;49.538;8.352;2023-05-20T13:50:22;4.95;;;4.65;;
10535;SDS011;5316;49.538;8.352;2023-05-20T13:52:50;4.68;;;4.38;;
10535;SDS011;5316;49.538;8.352;2023-05-20T13:55:16;4.10;;;3.90;;
10535;SDS011;5316;49.538;8.352;2023-05-20T13:57:43;4.03;;;3.78;;
10535;SDS011;5316;49.538;8.352;2023-05-20T14:00:10;4.22;;;3.92;;
10535;SDS011;5316;49.538;8.352;2023-05-20T14:02:38;4.63;;;4.25;;
10535;SDS011;5316;49.538;8.352;2023-05-20T14:05:05;4.55;;;4.15;;
10535;SDS011;5316;49.538;8.352;2023-05-20T14:07:34;5.15;;;4.85;;
10535;SDS011;5316;49.538;8.352;2023-05-20T14:10:01;4.72;;;4.32;;
10535;SDS011;5316;49.538;8.352;2023-05-20T14:12:28;5.07;;;4.43;;
10535;SDS011;5316;49.538;8.352;2023-05-20T14:14:55;4.20;;;3.90;;
10535;SDS011;5316;49.538;8.352;2023-05-20T14:17:23;4.82;;;4.53;;
10535;SDS011;5316;49.538;8.352;2023-05-20T14:19:49;5.18;;;4.78;;
10535;SDS011;5316;49.538;8.352;2023-05-20T14:22:16;5.00;;;4.60;;
10535;SDS011;5316;49.538;8.352;2023-05-20T14:24:45;4.75;;;4.45;;
10535;SDS011;5316;49.538;8.352;2023-05-20T14:27:12;4.93;;;4.53;;
10535;SDS011;5316;49.538;8.352;2023-05-20T14:29:39;4.88;;;4.47;;
10535;SDS011;5316;49.538;8.352;2023-05-20T14:32:06;4.93;;;4.45;;
10535;SDS011;5316;49.538;8.352;2023-05-20T14:34:33;5.55;;;5.15;;
10535;SDS011;5316;49.538;8.352;2023-05-20T14:36:59;5.03;;;4.50;;
10535;SDS011;5316;49.538;8.352;2023-05-20T14:39:38;5.63;;;5.22;;
10535;SDS011;5316;49.538;8.352;2023-05-20T14:42:06;4.80;;;4.50;;
10535;SDS011;5316;49.538;8.352;2023-05-20T14:44:33;6.43;;;5.53;;
10535;SDS011;5316;49.538;8.352;2023-05-20T14:47:00;4.70;;;4.40;;
10535;SDS011;5316;49.538;8.352;2023-05-20T14:49:28;4.82;;;4.43;;
10535;SDS011;5316;49.538;8.352;2023-05-20T14:51:55;4.88;;;4.50;;
10535;SDS011;5316;49.538;8.352;2023-05-20T14:54:22;4.35;;;4.05;;
10535;SDS011;5316;49.538;8.352;2023-05-20T14:56:50;5.35;;;4.95;;
10535;SDS011;5316;49.538;8.352;2023-05-20T14:59:19;5.75;;;5.18;;
10535;SDS011;5316;49.538;8.352;2023-05-20T15:01:46;5.18;;;4.88;;
10535;SDS011;5316;49.538;8.352;2023-05-20T15:04:13;5.78;;;5.28;;
10535;SDS011;5316;49.538;8.352;2023-05-20T15:06:40;5.45;;;5.15;;
10535;SDS011;5316;49.538;8.352;2023-05-20T15:09:07;5.07;;;4.65;;
10535;SDS011;5316;49.538;8.352;2023-05-20T15:11:34;5.40;;;4.90;;
10535;SDS011;5316;49.538;8.352;2023-05-20T15:14:01;5.78;;;5.22;;
10535;SDS011;5316;49.538;8.352;2023-05-20T15:16:29;4.75;;;4.35;;
10535;SDS011;5316;49.538;8.352;2023-05-20T15:18:56;5.82;;;4.95;;
10535;SDS011;5316;49.538;8.352;2023-05-20T15:21:22;7.60;;;5.32;;
10535;SDS011;5316;49.538;8.352;2023-05-20T15:23:49;4.90;;;4.60;;
10535;SDS011;5316;49.538;8.352;2023-05-20T15:26:16;6.07;;;5.47;;
10535;SDS011;5316;49.538;8.352;2023-05-20T15:28:43;6.10;;;5.60;;
10535;SDS011;5316;49.538;8.352;2023-05-20T15:31:10;5.63;;;5.25;;
10535;SDS011;5316;49.538;8.352;2023-05-20T15:33:42;5.63;;;5.10;;
10535;SDS011;5316;49.538;8.352;2023-05-20T15:36:15;6.78;;;5.95;;
10535;SDS011;5316;49.538;8.352;2023-05-20T15:38:42;6.10;;;5.63;;
10535;SDS011;5316;49.538;8.352;2023-05-20T15:41:11;7.15;;;5.75;;
10535;SDS011;5316;49.538;8.352;2023-05-20T15:43:40;6.47;;;5.82;;
10535;SDS011;5316;49.538;8.352;2023-05-20T15:46:09;6.93;;;6.28;;
10535;SDS011;5316;49.538;8.352;2023-05-20T15:48:37;6.75;;;6.07;;
10535;SDS011;5316;49.538;8.352;2023-05-20T15:51:06;6.63;;;6.13;;
10535;SDS011;5316;49.538;8.352;2023-05-20T15:53:34;6.70;;;6.20;;
10535;SDS011;5316;49.538;8.352;2023-05-20T15:56:02;6.70;;;6.13;;
10535;SDS011;5316;49.538;8.352;2023-05-20T15:58:33;7.20;;;6.50;;
10535;SDS011;5316;49.538;8.352;2023-05-20T16:03:41;6.70;;;6.20;;
10535;SDS011;5316;49.538;8.352;2023-05-20T16:06:20;7.57;;;6.65;;
10535;SDS011;5316;49.538;8.352;2023-05-20T16:08:53;6.85;;;6.30;;
10535;SDS011;5316;49.538;8.352;2023-05-20T16:11:26;8.93;;;6.72;;
10535;SDS011;5316;49.538;8.352;2023-05-20T16:13:55;12.23;;;6.82;;
10535;SDS011;5316;49.538;8.352;2023-05-20T16:16:23;7.88;;;7.10;;
10535;SDS011;5316;49.538;8.352;2023-05-20T16:18:50;7.95;;;6.75;;
10535;SDS011;5316;49.538;8.352;2023-05-20T16:21:19;7.63;;;6.90;;
10535;SDS011;5316;49.538;8.352;2023-05-20T16:23:51;7.60;;;7.00;;
10535;SDS011;5316;49.538;8.352;2023-05-20T16:26:19;7.68;;;6.78;;
10535;SDS011;5316;49.538;8.352;2023-05-20T16:28:47;7.95;;;6.93;;
10535;SDS011;5316;49.538;8.352;2023-05-20T16:31:14;7.70;;;7.10;;
10535;SDS011;5316;49.538;8.352;2023-05-20T16:33:41;8.20;;;7.40;;
10535;SDS011;5316;49.538;8.352;2023-05-20T16:36:08;10.07;;;7.10;;
10535;SDS011;5316;49.538;8.352;2023-05-20T16:38:37;7.20;;;6.47;;
10535;SDS011;5316;49.538;8.352;2023-05-20T16:41:04;10.02;;;9.05;;
10535;SDS011;5316;49.538;8.352;2023-05-20T16:43:31;8.90;;;8.13;;
10535;SDS011;5316;49.538;8.352;2023-05-20T16:45:58;8.68;;;6.80;;
10535;SDS011;5316;49.538;8.352;2023-05-20T16:48:25;7.00;;;6.40;;
10535;SDS011;5316;49.538;8.352;2023-05-20T16:50:52;7.25;;;6.60;;
10535;SDS011;5316;49.538;8.352;2023-05-20T16:53:19;7.40;;;6.75;;
10535;SDS011;5316;49.538;8.352;2023-05-20T16:55:48;7.68;;;7.07;;
10535;SDS011;5316;49.538;8.352;2023-05-20T16:58:15;8.00;;;7.22;;
10535;SDS011;5316;49.538;8.352;2023-05-20T17:00:43;8.77;;;7.97;;
10535;SDS011;5316;49.538;8.352;2023-05-20T17:03:09;8.10;;;7.40;;
10535;SDS011;5316;49.538;8.352;2023-05-20T17:05:38;8.52;;;6.82;;
10535;SDS011;5316;49.538;8.352;2023-05-20T17:08:06;8.52;;;7.72;;
